Time;durP1;ratioP1;P1;durP2;ratioP2;P2;SDS_P1;SDS_P2;PMS_P1;PMS_P2;Temp;Humidity;BMP_temperature;BMP_pressure;BME280_temperature;BME280_humidity;BME280_pressure;Samples;Min_cycle;Max_cycle;Signal;HPM_P1;HPM_P2
2021/09/08 00:02:19;;;;;;;25.20;14.10;;;;;;;14.11;57.07;100908.45;109260;1234;94935;-77
2021/09/08 00:10:23;;;;;;;22.20;13.30;;;;;;;14.06;57.35;100912.01;111398;1222;635804;-76
2021/09/08 00:14:33;;;;;;;21.90;13.40;;;;;;;14.03;57.45;100914.02;112129;1213;93951;-76
2021/09/08 00:18:42;;;;;;;26.60;13.60;;;;;;;14.01;57.84;100917.24;112012;1218;93959;-77
2021/09/08 00:27:25;;;;;;;25.40;13.50;;;;;;;13.92;58.08;100919.65;111566;1216;107163;-77
2021/09/08 00:31:32;;;;;;;24.90;14.10;;;;;;;13.87;58.17;100922.30;110988;1217;108586;-76
2021/09/08 00:35:38;;;;;;;25.00;13.90;;;;;;;13.86;58.35;100927.58;110361;1227;137705;-76
2021/09/08 00:43:31;;;;;;;22.60;14.20;;;;;;;13.76;58.69;100928.75;110154;1225;107219;-76
2021/09/08 00:51:10;;;;;;;;;;;;;;;;;;;;;
2021/09/08 00:55:04;;;;;;;;;;;;;;;;;;;;;
2021/09/08 00:59:14;;;;;;;26.80;14.70;;;;;;;13.59;59.43;100924.98;112087;1206;137149;-76
2021/09/08 01:03:23;;;;;;;24.20;13.60;;;;;;;13.52;59.48;100923.14;112198;1212;107083;-76
2021/09/08 01:06:53;;;;;;;26.60;14.70;;;;;;;13.48;59.62;100923.63;111866;1218;136998;-78
2021/09/08 01:10:35;;;;;;;24.70;14.90;;;;;;;13.47;59.73;100924.89;111951;1218;106576;-76
2021/09/08 01:14:38;;;;;;;;;;;;;;;;;;;;;
2021/09/08 01:19:12;;;;;;;23.80;14.90;;;;;;;13.39;59.78;100923.73;111689;1219;137100;-76
2021/09/08 01:22:56;;;;;;;23.00;14.50;;;;;;;13.34;59.97;100928.27;111783;1219;108413;-75
2021/09/08 01:27:20;;;;;;;23.50;14.70;;;;;;;13.31;60.31;100925.41;111868;1219;105172;-76
2021/09/08 01:31:33;;;;;;;21.30;14.80;;;;;;;13.26;60.57;100922.56;111796;1212;137306;-76
2021/09/08 01:36:07;;;;;;;25.00;14.90;;;;;;;13.22;60.72;100921.33;111786;1212;94852;-76
2021/09/08 01:44:35;;;;;;;26.80;15.20;;;;;;;13.14;60.91;100918.21;110694;1220;137304;-76
2021/09/08 01:52:47;;;;;;;21.30;14.70;;;;;;;13.06;61.12;100919.34;110186;1231;108473;-76
2021/09/08 02:04:54;;;;;;;24.30;15.20;;;;;;;12.94;61.59;100919.05;109773;1229;108842;-75
2021/09/08 02:09:01;;;;;;;25.60;15.10;;;;;;;12.88;61.63;100917.11;109538;1231;137660;-76
2021/09/08 02:17:12;;;;;;;23.90;15.20;;;;;;;12.85;61.93;100914.27;109815;1228;95075;-76
2021/09/08 02:24:47;;;;;;;24.00;13.90;;;;;;;12.80;61.96;100908.84;111444;1220;636938;-76
2021/09/08 02:28:45;;;;;;;22.60;14.90;;;;;;;12.76;62.14;100904.60;112193;1204;137343;-77
2021/09/08 02:32:05;;;;;;;;;;;;;;;;;;;;;
2021/09/08 02:39:34;;;;;;;23.50;14.10;;;;;;;12.71;62.12;100906.48;112010;1207;136849;-79
2021/09/08 02:43:00;;;;;;;21.50;14.80;;;;;;;12.71;62.04;100905.95;112069;1209;107321;-77
2021/09/08 02:46:49;;;;;;;25.40;14.50;;;;;;;12.72;62.19;100904.36;112063;1207;136942;-77
2021/09/08 03:08:12;;;;;;;22.50;14.80;;;;;;;12.59;62.46;100909.63;112181;1210;93882;-76
2021/09/08 03:21:18;;;;;;;24.70;15.00;;;;;;;12.55;62.52;100911.33;111016;1222;108918;-75
2021/09/08 03:33:27;;;;;;;23.60;15.10;;;;;;;12.49;62.59;100906.64;109960;1226;94249;-75
2021/09/08 03:45:05;;;;;;;20.60;14.60;;;;;;;12.38;62.94;100906.75;111458;1214;635440;-75
2021/09/08 03:49:39;;;;;;;25.00;14.60;;;;;;;12.39;62.91;100905.88;112587;1198;94015;-75
2021/09/08 04:01:29;;;;;;;23.40;15.10;;;;;;;12.26;63.13;100910.63;111996;1209;107217;-75
2021/09/08 04:05:08;;;;;;;25.00;15.40;;;;;;;12.23;63.25;100912.97;111716;1220;137530;-74
2021/09/08 04:09:12;;;;;;;24.50;14.80;;;;;;;12.20;63.35;100911.11;111773;1214;94550;-74
2021/09/08 04:13:10;;;;;;;;;;;;;;;;;;;;;
2021/09/08 04:28:56;;;;;;;21.50;14.30;;;;;;;12.87;62.74;100908.10;111089;1218;94967;-74
2021/09/08 04:32:13;;;;;;;;;;;;;;;;;;;;;
2021/09/08 04:45:25;;;;;;;22.60;13.40;;;;;;;16.89;56.61;100909.66;111551;1213;137532;-74
2021/09/08 04:48:25;;;;;;;20.70;14.30;;;;;;;18.06;54.81;100904.16;111322;1214;138762;-75
2021/09/08 04:51:31;;;;;;;21.00;13.30;;;;;;;19.24;52.82;100895.14;111606;1214;95033;-74
2021/09/08 04:59:38;;;;;;;18.20;12.30;;;;;;;20.42;48.51;100901.11;111325;1216;107921;-74
2021/09/08 05:03:44;;;;;;;;;;;;;;;;;;;;;
2021/09/08 05:10:37;;;;;;;17.00;12.40;;;;;;;23.95;42.61;100891.25;110673;1220;94907;-74
2021/09/08 05:13:21;;;;;;;17.70;12.40;;;;;;;24.51;41.28;100881.66;110616;1220;137125;-74
2021/09/08 05:17:02;;;;;;;;;;;;;;;;;;;;;
2021/09/08 05:21:05;;;;;;;;;;;;;;;;;;;;;
2021/09/08 05:24:43;;;;;;;17.50;11.20;;;;;;;25.98;37.61;100887.39;110749;1223;95379;-75
2021/09/08 05:28:03;;;;;;;18.40;11.10;;;;;;;26.55;36.16;100883.61;111094;1216;95136;-74
2021/09/08 05:31:17;;;;;;;15.70;11.00;;;;;;;27.07;34.91;100883.18;110958;1224;137257;-74
2021/09/08 05:38:20;;;;;;;14.90;10.50;;;;;;;27.53;33.53;100884.50;111077;1217;137257;-75
2021/09/08 05:42:28;;;;;;;;;;;;;;;;;;;;;
2021/09/08 05:45:15;;;;;;;23.50;11.60;;;;;;;28.02;32.24;100890.02;111803;1211;136968;-74
2021/09/08 05:48:05;;;;;;;22.40;12.20;;;;;;;28.19;32.00;100889.88;112209;1205;108744;-74
2021/09/08 05:51:44;;;;;;;18.10;12.50;;;;;;;28.55;31.72;100885.66;112097;1206;137275;-74
2021/09/08 05:54:52;;;;;;;;;;;;;;;29.04;30.89;100891.39;112274;1203;108937;-74
2021/09/08 05:58:21;;;;;;;23.20;12.40;;;;;;;29.19;30.34;100892.77;112367;1204;94836;-75
2021/09/08 06:01:53;;;;;;;22.80;13.10;;;;;;;29.32;29.59;100888.93;112414;1203;94826;-75
2021/09/08 06:04:56;;;;;;;20.00;13.30;;;;;;;29.69;29.38;100886.06;112379;1200;109394;-74
2021/09/08 06:08:28;;;;;;;21.70;13.50;;;;;;;30.08;28.93;100880.81;112306;1200;137586;-74
2021/09/08 06:11:55;;;;;;;;;;;;;;;;;;;;;
2021/09/08 06:15:29;;;;;;;20.50;13.10;;;;;;;30.42;28.08;100879.33;112365;1203;137399;-74
2021/09/08 06:18:25;;;;;;;19.60;12.60;;;;;;;30.85;27.90;100874.10;112767;1204;94799;-74
2021/09/08 06:22:05;;;;;;;25.50;13.10;;;;;;;31.27;27.77;100870.21;112639;1204;136938;-75
2021/09/08 06:25:06;;;;;;;20.90;12.20;;;;;;;31.87;27.56;100873.94;112623;1205;106071;-75
2021/09/08 06:28:54;;;;;;;;;;;;;;;;;;;;;
2021/09/08 06:31:55;;;;;;;18.60;11.90;;;;;;;33.59;26.08;100870.55;112430;1207;94907;-75
2021/09/08 06:34:46;;;;;;;18.30;10.30;;;;;;;34.09;25.34;100869.10;112416;1207;94907;-75
2021/09/08 06:37:51;;;;;;;16.60;11.40;;;;;;;34.86;24.44;100862.88;112402;1200;99964;-74
2021/09/08 06:40:43;;;;;;;16.50;11.40;;;;;;;35.65;23.85;100864.58;112295;1200;137280;-74
2021/09/08 06:43:35;;;;;;;17.60;11.90;;;;;;;36.29;23.20;100865.42;112434;1201;98767;-74
2021/09/08 06:46:36;;;;;;;16.50;10.60;;;;;;;37.11;22.59;100867.67;112280;1200;137373;-74
2021/09/08 06:49:23;;;;;;;17.80;11.40;;;;;;;37.89;22.08;100868.68;112466;1207;94884;-74
2021/09/08 06:52:32;;;;;;;23.50;15.20;;;;;;;38.74;21.33;100868.70;112361;1207;137364;-76
2021/09/08 06:55:40;;;;;;;17.20;11.80;;;;;;;39.62;20.36;100868.62;112412;1207;98528;-74
2021/09/08 06:58:57;;;;;;;13.20;10.20;;;;;;;40.50;19.85;100876.84;112300;1200;135949;-73
2021/09/08 07:01:48;;;;;;;21.00;11.10;;;;;;;41.06;19.37;100883.94;112401;1200;94995;-74
2021/09/08 07:04:41;;;;;;;16.70;10.50;;;;;;;41.29;18.89;100881.29;112301;1200;137496;-74
2021/09/08 07:07:49;;;;;;;14.50;10.80;;;;;;;41.40;18.54;100884.52;112494;1200;99887;-74
2021/09/08 07:10:38;;;;;;;18.10;10.60;;;;;;;41.43;18.57;100884.55;112689;1204;137079;-75
2021/09/08 07:13:31;;;;;;;14.40;10.50;;;;;;;41.25;18.50;100886.47;112781;1204;99873;-75
2021/09/08 07:17:01;;;;;;;;;;;;;;;;;;;;;
2021/09/08 07:19:49;;;;;;;19.20;11.20;;;;;;;41.90;18.11;100889.30;112803;1204;94960;-74
2021/09/08 07:22:37;;;;;;;18.60;11.30;;;;;;;42.44;17.55;100884.33;112678;1204;137663;-74
2021/09/08 07:25:26;;;;;;;16.10;10.50;;;;;;;42.71;17.25;100885.95;112844;1198;98602;-74
2021/09/08 07:28:14;;;;;;;17.40;10.30;;;;;;;42.77;16.97;100882.60;112684;1204;137197;-74
2021/09/08 07:31:06;;;;;;;12.00;10.00;;;;;;;42.73;16.77;100883.77;112720;1204;94874;-74
2021/09/08 07:34:16;;;;;;;21.00;10.60;;;;;;;42.72;16.66;100883.60;112608;1204;137194;-73
2021/09/08 07:37:31;;;;;;;13.20;9.90;;;;;;;42.95;16.33;100883.84;112752;1204;99921;-74
2021/09/08 07:40:18;;;;;;;18.90;10.40;;;;;;;42.94;16.41;100886.13;112668;1204;137125;-75
2021/09/08 07:43:07;;;;;;;16.20;10.80;;;;;;;43.14;16.27;100887.60;112537;1201;137528;-74
2021/09/08 07:46:18;;;;;;;21.60;10.80;;;;;;;43.28;15.89;100884.52;112772;1203;93869;-75
2021/09/08 07:49:25;;;;;;;16.50;11.20;;;;;;;43.40;15.64;100882.23;112709;1197;137842;-75
2021/09/08 07:52:21;;;;;;;18.30;10.30;;;;;;;43.74;15.44;100882.79;112813;1204;100759;-74
2021/09/08 07:55:11;;;;;;;15.50;9.60;;;;;;;43.89;15.25;100885.46;112725;1204;137263;-74
2021/09/08 07:57:58;;;;;;;15.80;10.10;;;;;;;43.63;14.92;100887.33;112855;1198;98791;-75
2021/09/08 08:00:45;;;;;;;18.60;10.80;;;;;;;43.43;15.15;100885.21;112691;1203;137377;-75
2021/09/08 08:03:37;;;;;;;18.30;10.80;;;;;;;43.47;15.14;100883.41;112890;1202;94882;-75
2021/09/08 08:06:26;;;;;;;17.30;10.00;;;;;;;43.33;15.22;100883.23;112855;1195;101027;-74
2021/09/08 08:09:34;;;;;;;16.70;9.90;;;;;;;43.14;15.33;100882.07;112890;1202;98557;-74
2021/09/08 08:12:46;;;;;;;16.50;10.20;;;;;;;43.11;15.36;100884.52;112975;1195;97531;-74
2021/09/08 08:15:41;;;;;;;13.00;9.50;;;;;;;43.17;15.13;100884.32;112919;1196;137025;-75
2021/09/08 08:18:31;;;;;;;18.60;11.90;;;;;;;43.19;14.89;100881.31;112903;1196;94790;-74
2021/09/08 08:21:29;;;;;;;13.50;10.10;;;;;;;42.88;14.91;100882.33;112780;1196;137110;-82
2021/09/08 08:24:16;;;;;;;16.00;9.70;;;;;;;42.73;15.16;100886.21;113028;1202;97800;-75
2021/09/08 08:27:08;;;;;;;20.00;9.90;;;;;;;42.88;15.47;100884.46;112780;1203;136936;-74
2021/09/08 08:29:56;;;;;;;11.60;9.20;;;;;;;43.16;15.06;100886.92;112797;1203;94929;-74
2021/09/08 08:32:48;;;;;;;15.70;10.00;;;;;;;43.07;14.80;100886.55;112769;1204;137311;-74
2021/09/08 08:35:45;;;;;;;10.00;8.90;;;;;;;42.76;15.05;100887.68;112947;1202;100943;-75
2021/09/08 08:38:45;;;;;;;12.40;9.50;;;;;;;42.67;14.99;100889.98;112913;1198;137121;-73
2021/09/08 08:41:33;;;;;;;16.40;9.80;;;;;;;42.68;14.90;100885.34;112963;1202;99699;-74
2021/09/08 08:44:25;;;;;;;15.70;9.70;;;;;;;42.40;14.97;100890.65;112869;1202;137163;-76
2021/09/08 08:47:32;;;;;;;14.10;9.90;;;;;;;42.31;14.97;100890.72;112909;1199;94816;-75
2021/09/08 08:50:26;;;;;;;15.30;9.00;;;;;;;42.00;15.19;100891.05;112913;1199;137120;-75
2021/09/08 08:53:17;;;;;;;15.40;9.40;;;;;;;41.88;15.33;100888.94;113040;1203;98297;-74
2021/09/08 08:56:14;;;;;;;13.60;8.90;;;;;;;41.90;15.54;100886.28;112759;1203;137022;-75
2021/09/08 08:59:02;;;;;;;17.10;11.00;;;;;;;41.84;15.31;100886.98;112996;1195;94803;-75
2021/09/08 09:01:54;;;;;;;26.90;23.50;;;;;;;41.66;15.48;100891.38;112727;1198;138213;-75
2021/09/08 09:04:41;;;;;;;19.50;9.80;;;;;;;41.25;15.45;100892.41;112810;1197;99697;-73
2021/09/08 09:07:41;;;;;;;14.00;8.80;;;;;;;40.98;15.93;100888.45;112910;1203;137106;-75
2021/09/08 09:10:33;;;;;;;12.10;8.50;;;;;;;40.93;16.15;100887.94;112810;1203;99057;-74
2021/09/08 09:13:31;;;;;;;12.00;8.20;;;;;;;40.82;16.05;100883.80;112774;1195;137475;-75
2021/09/08 09:16:46;;;;;;;18.20;9.60;;;;;;;40.71;16.09;100881.79;112887;1204;96220;-74
2021/09/08 09:19:48;;;;;;;19.90;9.40;;;;;;;40.44;16.31;100880.67;112911;1203;137429;-74
2021/09/08 09:23:03;;;;;;;;;;;;;;;;;;;;;
2021/09/08 09:25:58;;;;;;;17.60;9.80;;;;;;;39.88;16.68;100879.79;112740;1204;137328;-73
2021/09/08 09:28:47;;;;;;;12.50;8.30;;;;;;;39.39;16.77;100880.61;112817;1205;95103;-75
2021/09/08 09:32:11;;;;;;;;;;;;;;;;;;;;;
2021/09/08 09:35:27;;;;;;;17.90;9.20;;;;;;;38.81;17.61;100884.01;112976;1204;110357;-74
2021/09/08 09:38:22;;;;;;;9.90;8.40;;;;;;;38.37;17.67;100885.15;112691;1203;137531;-74
2021/09/08 09:41:38;;;;;;;14.00;9.10;;;;;;;37.74;18.22;100879.71;112865;1203;99896;-75
2021/09/08 09:44:50;;;;;;;19.10;9.10;;;;;;;37.58;18.51;100877.05;112847;1203;137165;-75
2021/09/08 09:48:31;;;;;;;;;;;;;;;;;;;;;
2021/09/08 09:51:35;;;;;;;8.90;7.50;;;;;;;37.39;18.38;100876.04;112356;1200;137413;-74
2021/09/08 09:54:24;;;;;;;9.10;7.10;;;;;;;36.90;18.42;100868.54;112415;1207;96332;-77
2021/09/08 09:57:11;;;;;;;10.00;7.80;;;;;;;36.73;19.19;100866.48;112338;1207;137311;-74
2021/09/08 10:00:37;;;;;;;;;;;;;;;;;;;;;
2021/09/08 10:03:35;;;;;;;10.20;7.00;;;;;;;36.78;18.97;100862.10;112338;1201;137125;-75
2021/09/08 10:06:24;;;;;;;9.00;7.20;;;;;;;36.69;18.64;100864.13;112417;1201;101247;-75
2021/09/08 10:09:26;;;;;;;13.10;8.20;;;;;;;36.47;19.13;100858.28;112336;1207;137279;-74
2021/09/08 10:12:22;;;;;;;13.50;8.40;;;;;;;36.92;19.00;100857.54;112438;1201;99138;-75
2021/09/08 10:15:37;;;;;;;11.30;7.70;;;;;;;37.05;18.70;100856.14;112312;1202;137186;-75
2021/09/08 10:18:58;;;;;;;11.90;7.70;;;;;;;37.11;19.17;100857.89;112428;1201;96299;-73
2021/09/08 10:22:30;;;;;;;9.50;7.60;;;;;;;37.16;19.06;100857.90;112310;1201;137859;-75
2021/09/08 10:25:24;;;;;;;8.70;7.00;;;;;;;37.04;19.23;100854.09;112451;1202;97538;-75
2021/09/08 10:28:49;;;;;;;9.40;7.00;;;;;;;37.35;19.45;100852.23;112637;1197;99860;-75
2021/09/08 10:31:50;;;;;;;10.00;7.00;;;;;;;37.78;19.34;100850.27;112951;1203;96244;-74
2021/09/08 10:35:17;;;;;;;11.20;7.30;;;;;;;38.07;18.89;100848.99;112970;1202;96157;-75
2021/09/08 10:38:32;;;;;;;10.40;7.60;;;;;;;38.22;18.82;100844.69;112866;1195;101110;-74
2021/09/08 10:41:21;;;;;;;11.40;7.60;;;;;;;37.84;18.68;100847.66;112910;1204;98567;-74
2021/09/08 10:44:09;;;;;;;10.10;7.40;;;;;;;37.53;19.02;100850.46;112796;1203;99853;-73
2021/09/08 10:47:02;;;;;;;10.40;7.50;;;;;;;37.25;18.88;100848.63;112748;1198;137389;-74
2021/09/08 10:50:25;;;;;;;13.10;7.70;;;;;;;36.64;19.08;100845.58;112905;1204;96195;-75
2021/09/08 10:54:07;;;;;;;;;;;;;;;;;;;;;
2021/09/08 10:57:12;;;;;;;12.50;7.80;;;;;;;35.08;20.37;100843.11;112850;1196;137694;-74
2021/09/08 11:01:10;;;;;;;12.30;8.60;;;;;;;34.94;21.20;100835.98;112951;1203;99278;-75
2021/09/08 11:05:02;;;;;;;18.10;12.70;;;;;;;34.64;20.97;100838.54;112852;1204;137153;-74
2021/09/08 11:08:59;;;;;;;;;;;;;;;;;;;;;
2021/09/08 11:12:37;;;;;;;14.70;9.10;;;;;;;32.64;22.46;100831.13;112966;1204;102221;-76
2021/09/08 11:16:33;;;;;;;;;;;;;;;;;;;;;
2021/09/08 11:20:33;;;;;;;;;;;;;;;;;;;;;
2021/09/08 11:23:25;;;;;;;11.50;8.90;;;;;;;30.46;25.00;100829.70;112141;1205;137520;-75
2021/09/08 11:27:12;;;;;;;;;;;;;;;;;;;;;
2021/09/08 11:30:56;;;;;;;19.60;7.90;;;;;;;30.72;26.25;100820.44;112106;1209;137121;-74
2021/09/08 11:33:52;;;;;;;10.80;8.20;;;;;;;31.05;26.08;100818.02;112253;1205;106303;-74
2021/09/08 11:36:50;;;;;;;12.90;8.20;;;;;;;31.30;26.05;100812.88;112237;1204;108480;-75
2021/09/08 11:40:40;;;;;;;;;;;;;;;;;;;;;
2021/09/08 11:44:18;;;;;;;13.70;9.40;;;;;;;31.35;25.31;100816.88;112249;1204;96441;-75
2021/09/08 11:47:17;;;;;;;11.40;8.60;;;;;;;31.33;24.81;100816.18;112180;1209;137789;-74
2021/09/08 11:50:25;;;;;;;12.50;8.20;;;;;;;31.39;25.10;100811.72;112298;1211;107388;-75
2021/09/08 11:54:32;;;;;;;;;;;;;;;;;;;;;
2021/09/08 11:57:54;;;;;;;12.50;8.90;;;;;;;31.26;25.45;100801.27;112473;1203;96156;-75
2021/09/08 12:01:37;;;;;;;14.30;8.40;;;;;;;31.32;25.66;100799.45;112723;1201;137432;-74
2021/09/08 12:05:22;;;;;;;;;;;;;;;;;;;;;
2021/09/08 12:08:21;;;;;;;11.30;8.50;;;;;;;31.35;25.56;100804.33;112843;1196;106657;-74
2021/09/08 12:11:27;;;;;;;13.30;11.00;;;;;;;31.13;25.66;100798.39;112914;1204;108609;-76
2021/09/08 12:15:07;;;;;;;14.70;11.40;;;;;;;30.98;25.77;100793.95;112942;1195;96269;-74
2021/09/08 12:19:36;;;;;;;11.00;8.90;;;;;;;30.67;26.40;100798.65;112124;1211;137401;-75
2021/09/08 12:22:52;;;;;;;13.80;9.00;;;;;;;30.37;26.82;100791.25;112077;1209;109828;-75
2021/09/08 12:26:34;;;;;;;;;;;;;;;;;;;;;
2021/09/08 12:30:39;;;;;;;11.60;8.20;;;;;;;30.48;27.13;100788.63;111814;1213;137500;-75
2021/09/08 12:33:29;;;;;;;10.60;8.40;;;;;;;30.57;27.18;100785.27;111905;1217;96351;-72
2021/09/08 12:37:02;;;;;;;10.00;8.30;;;;;;;30.65;27.20;100781.79;111791;1216;137146;-76
2021/09/08 12:40:19;;;;;;;10.20;8.60;;;;;;;30.83;27.68;100781.14;111939;1213;111014;-74
2021/09/08 12:44:00;;;;;;;13.40;9.40;;;;;;;31.00;27.50;100775.38;111869;1216;137440;-75
2021/09/08 12:47:43;;;;;;;10.80;8.40;;;;;;;31.04;27.56;100768.65;111732;1220;108477;-75
2021/09/08 12:51:11;;;;;;;10.00;8.40;;;;;;;31.06;27.60;100767.93;111696;1221;96217;-75
2021/09/08 12:54:41;;;;;;;10.80;8.60;;;;;;;30.99;27.60;100761.04;111883;1216;96292;-75
2021/09/08 12:58:28;;;;;;;14.40;8.90;;;;;;;30.74;28.22;100764.17;111937;1218;109857;-75
2021/09/08 13:02:07;;;;;;;;;;;;;;;;;;;;;
2021/09/08 13:05:24;;;;;;;;;;;;;;;30.06;28.61;100751.72;112035;1217;107545;-74
2021/09/08 13:08:59;;;;;;;11.90;8.70;;;;;;;29.99;28.89;100752.19;112128;1209;123713;-75
2021/09/08 13:12:48;;;;;;;11.00;8.60;;;;;;;29.98;29.02;100748.04;111989;1209;96385;-74
2021/09/08 13:16:03;;;;;;;;;;;;;;;;;;;;;
2021/09/08 13:19:35;;;;;;;12.50;8.90;;;;;;;29.55;29.30;100743.84;111927;1217;137592;-75
2021/09/08 13:22:49;;;;;;;;;;;;;;;;;;;;;
2021/09/08 13:26:20;;;;;;;10.10;8.50;;;;;;;29.38;29.84;100736.77;112054;1210;137620;-75
2021/09/08 13:29:59;;;;;;;;;;;;;;;;;;;;;
2021/09/08 13:33:40;;;;;;;12.60;9.30;;;;;;;28.72;30.41;100733.84;112077;1208;137485;-76
2021/09/08 13:37:30;;;;;;;;;;;;;;;;;;;;;
2021/09/08 13:41:09;;;;;;;11.70;8.60;;;;;;;27.48;31.89;100722.97;112225;1205;107496;-74
2021/09/08 13:44:58;;;;;;;10.70;8.70;;;;;;;27.45;32.26;100716.67;112110;1205;137517;-75
2021/09/08 13:49:07;;;;;;;;;;;;;;;;;;;;;
2021/09/08 13:56:53;;;;;;;10.30;8.50;;;;;;;27.75;32.53;100701.66;110979;1228;137895;-75
2021/09/08 14:01:20;;;;;;;11.90;9.10;;;;;;;27.43;32.47;100700.70;111123;1225;107400;-75
2021/09/08 14:04:53;;;;;;;;;;;;;;;;;;;;;
2021/09/08 14:08:24;;;;;;;12.80;8.50;;;;;;;26.38;33.71;100697.55;110621;1225;96581;-75
2021/09/08 14:11:22;;;;;;;15.20;8.50;;;;;;;26.32;33.82;100688.43;110833;1227;110655;-75
2021/09/08 14:19:20;;;;;;;17.20;9.50;;;;;;;26.34;34.28;100688.83;110285;1230;108522;-74
2021/09/08 14:26:05;;;;;;;14.20;10.00;;;;;;;25.95;34.90;100686.13;110363;1230;96411;-75
2021/09/08 14:29:50;;;;;;;13.40;10.00;;;;;;;25.77;35.51;100682.73;110430;1227;137434;-75
2021/09/08 14:33:29;;;;;;;;;;;;;;;;;;;;;
2021/09/08 14:36:26;;;;;;;12.20;8.90;;;;;;;25.51;35.86;100679.89;111181;1217;109919;-73
2021/09/08 14:40:38;;;;;;;11.70;9.60;;;;;;;25.48;36.00;100679.27;111515;1219;96400;-75
2021/09/08 14:44:16;;;;;;;13.20;9.40;;;;;;;25.23;35.84;100681.05;111178;1222;96239;-76
2021/09/08 14:47:39;;;;;;;13.30;8.90;;;;;;;25.09;36.19;100679.65;111646;1216;138249;-72
2021/09/08 14:51:12;;;;;;;;;;;;;;;;;;;;;
2021/09/08 14:55:00;;;;;;;11.30;9.50;;;;;;;24.85;36.80;100671.53;111533;1216;137314;-75
2021/09/08 14:59:28;;;;;;;11.50;9.00;;;;;;;24.78;36.90;100665.75;111708;1213;138386;-74
2021/09/08 15:02:54;;;;;;;;;;;;;;;;;;;;;
2021/09/08 15:06:55;;;;;;;;;;;;;;;;;;;;;
2021/09/08 15:10:21;;;;;;;9.20;7.70;;;;;;;24.79;36.52;100651.28;111164;1217;137746;-75
2021/09/08 15:14:05;;;;;;;;;;;;;;;;;;;;;
2021/09/08 15:18:22;;;;;;;13.30;8.20;;;;;;;24.73;35.96;100646.77;111659;1215;137572;-75
2021/09/08 15:21:51;;;;;;;;;;;;;;;;;;;;;
2021/09/08 15:26:03;;;;;;;11.30;8.40;;;;;;;24.64;36.07;100640.26;111534;1219;110032;-75
2021/09/08 15:29:18;;;;;;;12.10;8.50;;;;;;;24.57;36.32;100636.03;111634;1220;137588;-75
2021/09/08 15:32:46;;;;;;;11.50;9.00;;;;;;;24.48;36.83;100634.83;111766;1216;107504;-76
2021/09/08 15:36:13;;;;;;;14.10;9.00;;;;;;;24.33;37.22;100633.20;111827;1212;137436;-76
2021/09/08 15:44:04;;;;;;;12.10;9.20;;;;;;;24.18;37.78;100638.23;112110;1211;111039;-75
2021/09/08 15:48:00;;;;;;;12.70;9.30;;;;;;;24.00;37.95;100629.73;112189;1207;106261;-75
2021/09/08 15:52:05;;;;;;;12.40;9.60;;;;;;;23.86;38.49;100625.23;112033;1208;108546;-75
2021/09/08 15:55:46;;;;;;;;;;;;;;;;;;;;;
2021/09/08 15:59:29;;;;;;;;;;;;;;;;;;;;;
2021/09/08 16:03:50;;;;;;;;;;;;;;;;;;;;;
2021/09/08 16:08:04;;;;;;;17.40;9.90;;;;;;;23.56;39.59;100616.77;111859;1216;137796;-75
2021/09/08 16:11:44;;;;;;;15.30;10.10;;;;;;;23.48;40.02;100618.82;112007;1209;109149;-75
2021/09/08 16:15:39;;;;;;;16.20;10.10;;;;;;;23.39;40.26;100614.42;111900;1208;138016;-76
2021/09/08 16:19:47;;;;;;;;;;;;;;;;;;;;;
2021/09/08 16:36:36;;;;;;;14.80;10.50;;;;;;;22.98;41.88;100612.92;110823;1220;96380;-75
2021/09/08 16:43:44;;;;;;;14.90;10.70;;;;;;;22.81;42.50;100601.92;110659;1227;137806;-75
2021/09/08 16:47:31;;;;;;;;;;;;;;;;;;;;;
2021/09/08 16:50:56;;;;;;;;;;;;;;;;;;;;;
2021/09/08 16:54:54;;;;;;;;;;;;;;;;;;;;;
2021/09/08 16:59:03;;;;;;;13.60;10.40;;;;;;;22.48;43.38;100598.13;110253;1225;96246;-75
2021/09/08 17:03:09;;;;;;;15.70;11.40;;;;;;;22.38;44.07;100597.30;110378;1221;137711;-75
2021/09/08 17:06:49;;;;;;;16.60;11.50;;;;;;;22.25;44.87;100598.40;110563;1226;106198;-74
2021/09/08 17:11:05;;;;;;;19.70;12.30;;;;;;;22.10;45.43;100599.02;110689;1222;137426;-75
2021/09/08 17:14:26;;;;;;;19.30;11.60;;;;;;;21.96;45.84;100597.61;111232;1215;138215;-74
2021/09/08 17:23:04;;;;;;;17.00;12.60;;;;;;;21.67;47.09;100603.08;111560;1216;137335;-75
2021/09/08 17:26:33;;;;;;;21.40;13.60;;;;;;;21.51;47.95;100601.44;111258;1215;139670;-75
2021/09/08 17:30:42;;;;;;;18.30;13.20;;;;;;;21.38;48.24;100606.95;112001;1209;107501;-75
2021/09/08 17:34:45;;;;;;;;;;;;;;;;;;;;;
2021/09/08 17:51:17;;;;;;;17.90;13.60;;;;;;;20.84;50.56;100613.36;110110;1231;138021;-75
2021/09/08 17:58:30;;;;;;;;;;;;;;;;;;;;;
2021/09/08 18:02:30;;;;;;;;;;;;;;;;;;;;;
2021/09/08 18:06:30;;;;;;;;;;;;;;;;;;;;;
2021/09/08 18:10:39;;;;;;;20.20;15.40;;;;;;;20.57;52.13;100627.81;111675;1215;136761;-75
2021/09/08 18:18:33;;;;;;;22.20;15.40;;;;;;;20.49;52.53;100627.97;111372;1221;635044;-76
2021/09/08 18:22:36;;;;;;;20.40;15.70;;;;;;;20.39;52.78;100627.90;112218;1208;136833;-76
2021/09/08 18:26:44;;;;;;;22.30;15.50;;;;;;;20.31;53.06;100631.44;112170;1210;137106;-73
2021/09/08 18:30:53;;;;;;;24.60;14.90;;;;;;;20.23;53.41;100634.41;112284;1203;107136;-77
2021/09/08 18:38:45;;;;;;;;;;;;;;;;;;;;;
2021/09/08 18:42:37;;;;;;;21.90;15.20;;;;;;;20.07;54.30;100636.52;112038;1209;93994;-75
2021/09/08 18:45:26;;;;;;;25.00;16.10;;;;;;;20.04;54.44;100636.07;111878;1217;136837;-76
2021/09/08 18:48:51;;;;;;;;;;;;;;;;;;;;;
2021/09/08 18:57:41;;;;;;;24.90;16.60;;;;;;;19.91;55.04;100628.79;111421;1215;635737;-75
2021/09/08 19:01:19;;;;;;;;;;;;;;;;;;;;;
2021/09/08 19:05:36;;;;;;;24.80;17.10;;;;;;;19.84;55.32;100626.08;112195;1204;93881;-74
2021/09/08 19:09:45;;;;;;;26.60;17.50;;;;;;;19.80;55.27;100628.25;111949;1209;136968;-75
2021/09/08 19:13:12;;;;;;;;;;;;;;;;;;;;;
2021/09/08 19:21:09;;;;;;;27.40;17.50;;;;;;;19.61;55.99;100621.89;111676;1220;137820;-74
2021/09/08 19:25:31;;;;;;;26.40;18.20;;;;;;;19.57;56.03;100621.06;111852;1215;94704;-74
2021/09/08 19:29:19;;;;;;;27.00;18.90;;;;;;;19.53;56.25;100619.88;111700;1212;136809;-76
2021/09/08 19:32:15;;;;;;;27.10;18.70;;;;;;;19.48;56.28;100620.08;111834;1214;106336;-75
2021/09/08 19:40:14;;;;;;;30.10;18.00;;;;;;;19.34;57.01;100616.51;111924;1208;137418;-75
2021/09/08 19:44:23;;;;;;;28.30;19.30;;;;;;;19.29;57.18;100615.41;111922;1212;94806;-74
2021/09/08 19:48:33;;;;;;;26.50;19.50;;;;;;;19.24;57.39;100613.23;111799;1211;109665;-75
2021/09/08 19:52:24;;;;;;;27.40;20.10;;;;;;;19.18;57.66;100611.13;111673;1220;137330;-74
2021/09/08 20:00:40;;;;;;;32.20;19.40;;;;;;;19.06;58.21;100608.95;110985;1217;137480;-76
2021/09/08 20:12:43;;;;;;;33.20;20.10;;;;;;;18.94;58.81;100607.36;111021;1223;658706;-75
2021/09/08 20:16:52;;;;;;;31.20;20.60;;;;;;;18.88;58.84;100606.19;112039;1214;137393;-75
2021/09/08 20:20:45;;;;;;;;;;;;;;;18.82;59.13;100603.19;112080;1213;93943;-78
2021/09/08 20:24:52;;;;;;;28.50;19.80;;;;;;;18.75;59.22;100601.52;112080;1206;122938;-75
2021/09/08 20:36:52;;;;;;;;;;;;;;;;;;;;;
2021/09/08 20:45:29;;;;;;;32.00;21.10;;;;;;;18.40;60.42;100610.96;110222;1230;107863;-73
2021/09/08 20:48:55;;;;;;;;;;;;;;;;;;;;;
2021/09/08 20:52:50;;;;;;;;;;;;;;;;;;;;;
2021/09/08 20:56:58;;;;;;;;;;;;;;;;;;;;;
2021/09/08 21:01:02;;;;;;;;;;;;;;;;;;;;;
2021/09/08 21:05:27;;;;;;;27.20;20.20;;;;;;;18.13;61.66;100605.79;111556;1211;640338;-74
2021/09/08 21:09:36;;;;;;;26.60;20.70;;;;;;;18.05;61.96;100609.98;112278;1206;93887;-74
2021/09/08 21:13:44;;;;;;;33.80;22.00;;;;;;;18.01;61.85;100606.71;112121;1211;136422;-74
2021/09/08 21:17:40;;;;;;;;;;;;;;;;;;;;;
2021/09/08 21:21:49;;;;;;;28.70;21.70;;;;;;;17.94;61.92;100599.90;111420;1215;106152;-74
2021/09/08 21:46:24;;;;;;;29.50;21.20;;;;;;;17.79;62.55;100595.09;111557;1219;634618;-75
2021/09/08 21:50:33;;;;;;;30.30;22.50;;;;;;;17.75;62.57;100594.80;112072;1209;137019;-75
2021/09/08 21:54:52;;;;;;;;;;;;;;;;;;;;;